createdAt,value
2019-04-30T00:00:38.456Z,10.78
2019-04-30T00:03:19.556Z,10.81
2019-04-30T00:05:49.357Z,10.80
2019-04-30T00:08:18.191Z,10.77
2019-04-30T00:10:46.787Z,10.74
2019-04-30T00:13:20.622Z,10.73
2019-04-30T00:15:48.016Z,10.72
2019-04-30T00:18:16.094Z,10.70
2019-04-30T00:20:46.743Z,10.66
2019-04-30T00:23:17.759Z,10.65
2019-04-30T00:25:46.041Z,10.60
2019-04-30T00:28:15.523Z,10.52
2019-04-30T00:30:47.631Z,10.41
2019-04-30T00:33:21.655Z,10.29
2019-04-30T00:35:45.383Z,10.18
2019-04-30T00:38:15.127Z,10.09
2019-04-30T00:40:45.018Z,10.00
2019-04-30T00:43:15.445Z,9.93
2019-04-30T00:45:47.405Z,9.91
2019-04-30T00:48:19.874Z,9.94
2019-04-30T00:50:45.721Z,9.99
2019-04-30T00:53:16.483Z,10.04
2019-04-30T00:55:48.379Z,10.09
2019-04-30T00:58:17.704Z,10.15
2019-04-30T01:00:46.880Z,10.19
2019-04-30T01:03:17.796Z,10.23
2019-04-30T01:05:47.925Z,10.27
2019-04-30T01:08:21.094Z,10.29
2019-04-30T01:10:47.001Z,10.32
2019-04-30T01:13:15.636Z,10.34
2019-04-30T01:15:49.076Z,10.38
2019-04-30T01:18:14.593Z,10.41
2019-04-30T01:20:43.379Z,10.42
2019-04-30T01:23:14.884Z,10.43
2019-04-30T01:25:49.944Z,10.43
2019-04-30T01:28:16.280Z,10.44
2019-04-30T01:30:45.574Z,10.46
2019-04-30T01:33:14.257Z,10.45
2019-04-30T01:35:42.838Z,10.46
2019-04-30T01:38:12.821Z,10.43
2019-04-30T01:40:47.435Z,10.45
2019-04-30T01:43:13.765Z,10.43
2019-04-30T01:45:42.342Z,10.41
2019-04-30T01:48:12.791Z,10.40
2019-04-30T01:50:42.108Z,10.40
2019-04-30T01:53:13.143Z,10.40
2019-04-30T01:55:45.851Z,10.40
2019-04-30T01:58:16.132Z,10.40
2019-04-30T02:00:49.465Z,10.42
2019-04-30T02:03:19.312Z,10.43
2019-04-30T02:05:49.905Z,10.42
2019-04-30T02:08:19.540Z,10.42
2019-04-30T02:10:49.123Z,10.43
2019-04-30T02:13:18.959Z,10.40
2019-04-30T02:15:49.228Z,10.39
2019-04-30T02:18:19.497Z,10.36
2019-04-30T02:20:49.696Z,10.34
2019-04-30T02:23:19.630Z,10.34
2019-04-30T02:25:48.994Z,10.31
2019-04-30T02:28:18.993Z,10.33
2019-04-30T02:30:50.539Z,10.33
2019-04-30T02:33:19.891Z,10.31
2019-04-30T02:36:06.556Z,10.30
2019-04-30T02:38:39.744Z,10.28
2019-04-30T02:41:09.979Z,10.27
2019-04-30T02:43:41.387Z,10.24
2019-04-30T02:46:12.236Z,10.19
2019-04-30T02:48:43.231Z,10.17
2019-04-30T02:51:14.019Z,10.15
2019-04-30T02:53:51.743Z,10.12
2019-04-30T02:56:26.053Z,10.06
2019-04-30T02:58:52.770Z,10.02
2019-04-30T03:01:21.351Z,10.00
2019-04-30T03:03:50.310Z,9.98
2019-04-30T03:06:20.554Z,9.97
2019-04-30T03:08:51.062Z,9.94
2019-04-30T03:11:20.636Z,9.94
2019-04-30T03:13:49.822Z,9.92
2019-04-30T03:16:20.763Z,9.90
2019-04-30T03:18:54.062Z,9.87
2019-04-30T03:21:40.719Z,9.83
2019-04-30T03:24:10.814Z,9.75
2019-04-30T03:26:40.253Z,9.66
2019-04-30T03:29:11.166Z,9.55
2019-04-30T03:31:43.943Z,9.45
2019-04-30T03:34:16.758Z,9.36
2019-04-30T03:36:40.565Z,9.27
2019-04-30T03:39:10.905Z,9.19
2019-04-30T03:41:41.262Z,9.11
2019-04-30T03:44:20.833Z,9.02
2019-04-30T03:46:40.604Z,8.95
2019-04-30T03:49:12.519Z,8.85
2019-04-30T03:51:40.394Z,8.79
2019-04-30T03:54:10.505Z,8.72
2019-04-30T03:56:40.070Z,8.66
2019-04-30T03:59:10.624Z,8.60
2019-04-30T04:01:53.413Z,8.51
2019-04-30T04:04:30.959Z,8.45
2019-04-30T04:07:10.480Z,8.36
2019-04-30T04:09:52.719Z,8.30
2019-04-30T04:12:22.064Z,8.23
2019-04-30T04:14:51.343Z,8.17
2019-04-30T04:17:20.657Z,8.10
2019-04-30T04:19:52.425Z,8.05
2019-04-30T04:22:21.533Z,8.01
2019-04-30T04:24:50.935Z,7.97
2019-04-30T04:27:19.943Z,7.94
2019-04-30T04:29:50.933Z,7.93
2019-04-30T04:32:23.601Z,7.92
2019-04-30T04:34:50.393Z,7.92
2019-04-30T04:37:20.280Z,7.94
2019-04-30T04:39:50.108Z,7.95
2019-04-30T04:42:19.799Z,7.97
2019-04-30T04:44:50.089Z,7.97
2019-04-30T04:47:20.159Z,7.96
2019-04-30T04:49:53.086Z,7.96
2019-04-30T04:52:21.728Z,7.99
2019-04-30T04:54:50.683Z,8.03
2019-04-30T04:57:22.586Z,8.08
2019-04-30T04:59:50.304Z,8.14
2019-04-30T05:02:32.340Z,8.20
2019-04-30T05:05:00.070Z,8.26
2019-04-30T05:07:28.851Z,8.33
2019-04-30T05:10:00.596Z,8.39
2019-04-30T05:12:29.601Z,8.48
2019-04-30T05:14:59.793Z,8.52
2019-04-30T05:17:29.623Z,8.58
2019-04-30T05:19:58.992Z,8.63
2019-04-30T05:22:29.169Z,8.69
2019-04-30T05:24:58.825Z,8.76
2019-04-30T05:27:27.591Z,8.85
2019-04-30T05:29:56.205Z,8.95
2019-04-30T05:32:24.773Z,9.04
2019-04-30T05:34:53.528Z,9.19
2019-04-30T05:37:22.462Z,9.39
2019-04-30T05:39:51.212Z,9.86
2019-04-30T05:42:19.797Z,10.49
2019-04-30T05:44:49.699Z,11.17
2019-04-30T05:47:19.594Z,11.78
2019-04-30T05:49:48.895Z,12.30
2019-04-30T05:52:19.678Z,12.81
2019-04-30T05:54:48.746Z,13.28
2019-04-30T05:57:19.571Z,13.72
2019-04-30T05:59:48.739Z,14.11
2019-04-30T06:02:19.353Z,14.41
2019-04-30T06:04:48.995Z,14.57
2019-04-30T06:07:18.865Z,14.52
2019-04-30T06:09:53.274Z,14.46
2019-04-30T06:12:39.244Z,14.44
2019-04-30T06:15:15.927Z,14.46
2019-04-30T06:18:00.067Z,14.49
2019-04-30T06:20:21.058Z,14.50
2019-04-30T06:22:52.217Z,14.61
2019-04-30T06:25:31.133Z,14.74
2019-04-30T06:27:51.737Z,14.79
2019-04-30T06:30:20.415Z,15.05
2019-04-30T06:32:49.672Z,15.21
2019-04-30T06:35:19.332Z,15.44
2019-04-30T06:37:48.893Z,15.67
2019-04-30T06:40:19.569Z,16.09
2019-04-30T06:42:49.570Z,16.39
2019-04-30T06:45:19.164Z,16.72
2019-04-30T06:47:49.083Z,16.72
2019-04-30T06:50:19.410Z,16.50
2019-04-30T06:52:56.230Z,15.97
2019-04-30T06:55:19.295Z,15.28
2019-04-30T06:57:49.698Z,14.81
2019-04-30T07:00:20.708Z,14.58
2019-04-30T07:02:49.520Z,14.46
2019-04-30T07:05:18.617Z,14.70
2019-04-30T07:08:09.251Z,15.32
2019-04-30T07:10:36.797Z,16.11
2019-04-30T07:13:13.114Z,17.11
2019-04-30T07:15:41.691Z,18.05
2019-04-30T07:18:10.445Z,18.76
2019-04-30T07:20:39.019Z,19.32
2019-04-30T07:23:09.343Z,19.65
2019-04-30T07:25:39.113Z,20.08
2019-04-30T07:28:08.983Z,20.44
2019-04-30T07:30:39.617Z,20.58
2019-04-30T07:33:09.530Z,20.97
2019-04-30T07:35:39.948Z,21.05
2019-04-30T07:38:09.300Z,20.85
2019-04-30T07:40:39.043Z,20.71
2019-04-30T07:43:09.064Z,20.41
2019-04-30T07:45:39.228Z,20.41
2019-04-30T07:48:09.293Z,20.74
2019-04-30T07:50:41.167Z,21.27
2019-04-30T07:53:11.287Z,21.60
2019-04-30T07:55:39.385Z,22.01
2019-04-30T07:58:09.072Z,22.53
2019-04-30T08:00:40.317Z,22.76
2019-04-30T08:03:10.743Z,23.07
2019-04-30T08:05:41.250Z,23.34
2019-04-30T08:08:20.805Z,23.58
2019-04-30T08:10:40.196Z,23.63
2019-04-30T08:13:14.170Z,23.74
2019-04-30T08:15:42.111Z,23.62
2019-04-30T08:18:09.402Z,23.45
2019-04-30T08:20:39.303Z,23.19
2019-04-30T08:23:20.355Z,22.28
2019-04-30T08:25:39.063Z,21.33
2019-04-30T08:28:09.083Z,20.73
2019-04-30T08:30:39.162Z,20.37
2019-04-30T08:33:09.419Z,19.86
2019-04-30T08:35:39.730Z,19.22
2019-04-30T08:38:10.751Z,18.56
2019-04-30T08:40:53.102Z,18.31
2019-04-30T08:43:09.894Z,18.68
2019-04-30T08:45:38.665Z,19.17
2019-04-30T08:48:09.083Z,19.15
2019-04-30T08:50:39.293Z,19.26
2019-04-30T08:53:10.458Z,19.76
2019-04-30T08:55:39.164Z,20.43
2019-04-30T08:58:12.444Z,21.25
2019-04-30T09:00:38.552Z,21.80
2019-04-30T09:03:09.227Z,22.41
2019-04-30T09:05:39.465Z,22.79
2019-04-30T09:08:09.695Z,23.19
2019-04-30T09:10:39.310Z,23.47
2019-04-30T09:13:09.122Z,23.55
2019-04-30T09:15:37.840Z,23.23
2019-04-30T09:18:10.244Z,23.02
2019-04-30T09:20:36.933Z,23.01
2019-04-30T09:23:05.611Z,23.06
2019-04-30T09:25:34.214Z,23.21
2019-04-30T09:28:04.453Z,23.06
2019-04-30T09:30:33.249Z,22.99
2019-04-30T09:33:01.826Z,23.01
2019-04-30T09:35:32.205Z,22.71
2019-04-30T09:38:01.956Z,22.04
2019-04-30T09:40:32.573Z,21.48
2019-04-30T09:43:01.202Z,20.97
2019-04-30T09:45:29.809Z,20.98
2019-04-30T09:47:59.269Z,21.32
2019-04-30T09:50:28.942Z,21.73
2019-04-30T09:53:00.140Z,21.93
2019-04-30T09:55:29.105Z,22.19
2019-04-30T09:57:58.874Z,22.64
2019-04-30T10:00:29.493Z,22.79
2019-04-30T10:02:59.818Z,22.36
2019-04-30T10:05:29.351Z,22.20
2019-04-30T10:07:59.452Z,22.25
2019-04-30T10:10:29.953Z,22.35
2019-04-30T10:12:59.251Z,22.44
2019-04-30T10:15:35.348Z,22.58
2019-04-30T10:18:03.981Z,22.67
2019-04-30T10:20:43.868Z,22.60
2019-04-30T10:23:12.442Z,22.85
2019-04-30T10:25:41.151Z,23.19
2019-04-30T10:28:10.118Z,23.20
2019-04-30T10:30:38.957Z,22.92
2019-04-30T10:33:09.789Z,22.43
2019-04-30T10:35:38.623Z,21.95
2019-04-30T10:38:09.708Z,21.50
2019-04-30T10:40:39.003Z,21.50
2019-04-30T10:43:08.923Z,21.73
2019-04-30T10:45:38.778Z,22.07
2019-04-30T10:48:07.540Z,22.52
2019-04-30T10:50:36.149Z,22.84
2019-04-30T10:53:05.154Z,23.13
2019-04-30T10:55:33.731Z,23.35
2019-04-30T10:58:02.309Z,23.23
2019-04-30T11:00:41.609Z,22.85
2019-04-30T11:03:19.204Z,22.20
2019-04-30T11:05:41.346Z,21.58
2019-04-30T11:08:10.282Z,21.10
2019-04-30T11:10:39.913Z,21.33
2019-04-30T11:13:08.715Z,21.90
2019-04-30T11:15:39.279Z,22.32
2019-04-30T11:18:07.742Z,22.62
2019-04-30T11:20:36.707Z,23.01
2019-04-30T11:23:14.249Z,23.05
2019-04-30T11:25:37.476Z,22.98
2019-04-30T11:28:07.507Z,22.74
2019-04-30T11:30:39.014Z,22.46
2019-04-30T11:33:07.295Z,21.94
2019-04-30T11:35:36.026Z,21.56
2019-04-30T11:38:04.701Z,21.24
2019-04-30T11:40:36.832Z,21.06
2019-04-30T11:43:04.171Z,20.88
2019-04-30T11:45:53.806Z,21.08
2019-04-30T11:48:22.383Z,21.53
2019-04-30T11:50:50.990Z,22.10
2019-04-30T11:53:25.468Z,22.71
2019-04-30T11:55:49.921Z,23.24
2019-04-30T11:58:21.595Z,23.54
2019-04-30T12:00:49.472Z,23.48
2019-04-30T12:03:19.150Z,23.06
2019-04-30T12:05:49.097Z,22.86
2019-04-30T12:08:26.548Z,22.56
2019-04-30T12:10:59.896Z,22.21
2019-04-30T12:13:29.887Z,22.17
2019-04-30T12:15:59.022Z,22.47
2019-04-30T12:18:27.770Z,22.86
2019-04-30T12:20:56.354Z,23.20
2019-04-30T12:23:25.077Z,23.39
2019-04-30T12:25:53.836Z,23.72
2019-04-30T12:28:22.440Z,24.02
2019-04-30T12:30:51.020Z,24.02
2019-04-30T12:33:19.591Z,24.01
2019-04-30T12:35:49.188Z,23.99
2019-04-30T12:38:19.252Z,24.02
2019-04-30T12:40:47.945Z,24.23
2019-04-30T12:43:16.579Z,24.23
2019-04-30T12:45:45.228Z,24.20
2019-04-30T12:48:15.546Z,24.11
2019-04-30T12:50:49.178Z,24.05
2019-04-30T12:53:19.533Z,24.07
2019-04-30T12:55:49.754Z,24.20
2019-04-30T12:58:20.727Z,24.29
2019-04-30T13:00:49.206Z,24.37
2019-04-30T13:03:17.796Z,24.15
2019-04-30T13:05:46.514Z,24.05
2019-04-30T13:08:15.685Z,24.16
2019-04-30T13:10:45.208Z,24.22
2019-04-30T13:13:14.788Z,24.23
2019-04-30T13:15:43.861Z,23.92
2019-04-30T13:18:12.447Z,23.40
2019-04-30T13:20:41.172Z,22.98
2019-04-30T13:23:09.823Z,22.41
2019-04-30T13:25:50.358Z,21.59
2019-04-30T13:28:13.069Z,21.37
2019-04-30T13:30:42.652Z,21.42
2019-04-30T13:33:12.872Z,21.58
2019-04-30T13:35:41.454Z,21.81
2019-04-30T13:38:20.581Z,22.19
2019-04-30T13:40:53.492Z,22.26
2019-04-30T13:43:40.258Z,22.30
2019-04-30T13:46:08.989Z,22.05
2019-04-30T13:48:37.649Z,21.91
2019-04-30T13:51:06.235Z,21.99
2019-04-30T13:53:34.745Z,22.17
2019-04-30T13:56:03.361Z,22.27
2019-04-30T13:58:31.942Z,22.38
2019-04-30T14:01:00.595Z,22.42
2019-04-30T14:03:30.822Z,22.47
2019-04-30T14:05:59.568Z,22.43
2019-04-30T14:08:29.809Z,22.50
2019-04-30T14:10:59.195Z,22.52
2019-04-30T14:13:27.969Z,22.49
2019-04-30T14:15:56.591Z,22.48
2019-04-30T14:18:30.778Z,22.38
2019-04-30T14:20:55.612Z,22.29
2019-04-30T14:23:24.256Z,22.22
2019-04-30T14:25:56.610Z,22.13
2019-04-30T14:28:23.192Z,22.00
2019-04-30T14:30:51.837Z,21.81
2019-04-30T14:33:26.384Z,21.70
2019-04-30T14:35:50.796Z,21.59
2019-04-30T14:40:50.414Z,21.25
2019-04-30T14:43:30.045Z,21.05
2019-04-30T14:46:01.720Z,20.94
2019-04-30T14:48:40.599Z,20.76
2019-04-30T14:51:08.511Z,20.52
2019-04-30T14:53:39.137Z,20.32
2019-04-30T14:56:19.678Z,20.18
2019-04-30T14:58:52.785Z,19.97
2019-04-30T15:01:22.978Z,19.81
2019-04-30T15:03:51.644Z,19.68
2019-04-30T15:06:20.260Z,19.61
2019-04-30T15:08:49.485Z,19.44
2019-04-30T15:11:19.051Z,19.28
2019-04-30T15:13:49.396Z,19.08
2019-04-30T15:16:18.187Z,18.91
2019-04-30T15:18:46.685Z,18.71
2019-04-30T15:21:15.302Z,18.60
2019-04-30T15:23:56.377Z,18.49
2019-04-30T15:26:22.883Z,18.41
2019-04-30T15:28:49.204Z,18.19
2019-04-30T15:31:18.939Z,18.24
2019-04-30T15:34:02.207Z,18.25
2019-04-30T15:36:22.508Z,18.27
2019-04-30T15:39:08.162Z,18.24
2019-04-30T15:41:36.806Z,18.18
2019-04-30T15:44:05.852Z,18.08
2019-04-30T15:46:34.502Z,18.02
2019-04-30T15:49:03.105Z,18.00
2019-04-30T15:51:31.740Z,17.95
2019-04-30T15:54:00.318Z,17.87
2019-04-30T15:56:37.025Z,17.76
2019-04-30T15:59:13.391Z,17.63
2019-04-30T16:01:43.942Z,17.55
2019-04-30T16:04:14.167Z,17.46
2019-04-30T16:06:42.746Z,17.44
2019-04-30T16:09:13.026Z,17.39
2019-04-30T16:11:44.441Z,17.35
2019-04-30T16:14:18.594Z,17.31
2019-04-30T16:17:00.753Z,17.29
2019-04-30T16:19:29.368Z,17.23
2019-04-30T16:21:57.977Z,17.18
2019-04-30T16:24:28.662Z,17.10
2019-04-30T16:26:56.921Z,17.06
2019-04-30T16:29:25.496Z,17.00
2019-04-30T16:31:54.161Z,16.97
2019-04-30T16:34:22.850Z,16.94
2019-04-30T16:36:51.432Z,16.90
2019-04-30T16:39:20.073Z,16.82
2019-04-30T16:41:49.660Z,16.78
2019-04-30T16:44:19.134Z,16.76
2019-04-30T16:46:49.906Z,16.72
2019-04-30T16:49:18.282Z,16.66
2019-04-30T16:51:46.930Z,16.62
2019-04-30T16:54:15.513Z,16.53
2019-04-30T16:56:44.185Z,16.45
2019-04-30T16:59:14.403Z,16.36
2019-04-30T17:01:43.047Z,16.28
2019-04-30T17:04:22.422Z,16.22
2019-04-30T17:07:05.159Z,16.15
2019-04-30T17:09:35.339Z,16.09
2019-04-30T17:12:05.558Z,16.02
2019-04-30T17:14:35.783Z,15.93
2019-04-30T17:17:04.372Z,15.87
2019-04-30T17:19:32.983Z,15.83
2019-04-30T17:22:01.544Z,15.76
2019-04-30T17:24:30.384Z,15.70
2019-04-30T17:26:59.343Z,15.65
2019-04-30T17:29:27.905Z,15.59
2019-04-30T17:31:56.502Z,15.50
2019-04-30T17:34:25.047Z,15.44
2019-04-30T17:36:53.795Z,15.40
2019-04-30T17:39:22.653Z,15.34
2019-04-30T17:41:51.274Z,15.27
2019-04-30T17:44:19.859Z,15.21
2019-04-30T17:46:50.207Z,15.16
2019-04-30T17:49:19.090Z,15.10
2019-04-30T17:51:49.058Z,15.04
2019-04-30T17:54:17.872Z,15.01
2019-04-30T17:56:46.717Z,14.95
2019-04-30T17:59:15.528Z,14.88
2019-04-30T18:01:52.487Z,14.81
2019-04-30T18:04:22.203Z,14.75
2019-04-30T18:06:50.900Z,14.68
2019-04-30T18:09:19.704Z,14.63
2019-04-30T18:11:49.561Z,14.56
2019-04-30T18:14:18.813Z,14.50
2019-04-30T18:16:48.649Z,14.43
2019-04-30T18:19:34.349Z,14.34
2019-04-30T18:22:04.736Z,14.26
2019-04-30T18:24:35.284Z,14.16
2019-04-30T18:27:11.382Z,14.08
2019-04-30T18:29:40.220Z,14.01
2019-04-30T18:32:09.380Z,13.94
2019-04-30T18:34:39.116Z,13.86
2019-04-30T18:37:09.030Z,13.80
2019-04-30T18:39:38.583Z,13.71
2019-04-30T18:42:10.852Z,13.61
2019-04-30T18:44:38.062Z,13.52
2019-04-30T18:47:08.931Z,13.43
2019-04-30T18:49:39.422Z,13.35
2019-04-30T18:52:09.088Z,13.26
2019-04-30T18:54:39.839Z,13.16
2019-04-30T18:57:09.720Z,13.05
2019-04-30T18:59:39.313Z,12.93
2019-04-30T19:02:10.331Z,12.84
2019-04-30T19:04:40.965Z,12.73
2019-04-30T19:07:18.915Z,12.62
2019-04-30T19:10:09.085Z,12.49
2019-04-30T19:12:50.319Z,12.38
2019-04-30T19:16:21.414Z,12.26
2019-04-30T19:18:49.501Z,12.14
2019-04-30T19:21:20.459Z,11.98
2019-04-30T19:23:51.379Z,11.83
2019-04-30T19:26:22.200Z,11.74
2019-04-30T19:28:53.309Z,11.62
2019-04-30T19:31:24.674Z,11.54
2019-04-30T19:33:55.396Z,11.49
2019-04-30T19:36:34.918Z,11.45
2019-04-30T19:38:59.744Z,11.44
2019-04-30T19:41:30.595Z,11.39
2019-04-30T19:44:01.194Z,11.36
2019-04-30T19:46:32.240Z,11.33
2019-04-30T19:49:03.697Z,11.30
2019-04-30T19:51:34.950Z,11.28
2019-04-30T19:54:05.629Z,11.23
2019-04-30T19:57:30.095Z,11.20
2019-04-30T20:00:01.949Z,11.15
2019-04-30T20:02:32.975Z,11.03
2019-04-30T20:05:04.084Z,10.96
2019-04-30T20:07:35.429Z,10.87
2019-04-30T20:10:09.047Z,10.81
2019-04-30T20:12:40.024Z,10.75
2019-04-30T20:15:19.278Z,10.68
2019-04-30T20:17:45.566Z,10.62
2019-04-30T20:20:16.391Z,10.57
2019-04-30T20:22:47.143Z,10.52
2019-04-30T20:25:19.068Z,10.49
2019-04-30T20:27:50.379Z,10.47
2019-04-30T20:30:20.896Z,10.45
2019-04-30T20:32:51.512Z,10.45
2019-04-30T20:35:22.922Z,10.45
2019-04-30T20:38:12.938Z,10.43
2019-04-30T20:40:57.097Z,10.42
2019-04-30T20:43:16.151Z,10.40
2019-04-30T20:45:45.885Z,10.37
2019-04-30T20:48:15.807Z,10.34
2019-04-30T20:50:45.784Z,10.29
2019-04-30T20:53:16.272Z,10.22
2019-04-30T20:55:46.141Z,10.16
2019-04-30T20:58:16.446Z,10.15
2019-04-30T21:00:46.299Z,10.13
2019-04-30T21:03:15.888Z,10.14
2019-04-30T21:05:45.580Z,10.13
2019-04-30T21:08:15.779Z,10.13
2019-04-30T21:10:45.726Z,10.09
2019-04-30T21:13:14.718Z,10.05
2019-04-30T21:15:43.487Z,10.02
2019-04-30T21:18:13.110Z,9.97
2019-04-30T21:20:42.716Z,9.93
2019-04-30T21:23:11.434Z,9.88
2019-04-30T21:25:40.206Z,9.83
2019-04-30T21:28:09.735Z,9.77
2019-04-30T21:30:38.528Z,9.74
2019-04-30T21:33:25.408Z,9.67
2019-04-30T21:35:55.747Z,9.58
2019-04-30T21:38:24.326Z,9.50
2019-04-30T21:40:53.029Z,9.42
2019-04-30T21:43:21.749Z,9.34
2019-04-30T21:45:50.397Z,9.28
2019-04-30T21:48:19.298Z,9.21
2019-04-30T21:50:49.774Z,9.17
2019-04-30T21:53:19.551Z,9.11
2019-04-30T21:55:49.660Z,9.03
2019-04-30T21:58:20.479Z,9.00
2019-04-30T22:01:10.608Z,8.97
2019-04-30T22:03:40.172Z,8.90
2019-04-30T22:06:10.663Z,8.82
2019-04-30T22:08:39.409Z,8.77
2019-04-30T22:11:09.715Z,8.78
2019-04-30T22:13:39.612Z,8.84
2019-04-30T22:16:08.886Z,8.90
2019-04-30T22:18:37.455Z,8.98
2019-04-30T22:21:06.030Z,9.01
2019-04-30T22:23:34.614Z,9.01
2019-04-30T22:26:03.182Z,8.99
2019-04-30T22:28:31.810Z,8.95
2019-04-30T22:31:00.461Z,8.89
2019-04-30T22:33:29.279Z,8.82
2019-04-30T22:35:59.624Z,8.75
2019-04-30T22:38:32.973Z,8.68
2019-04-30T22:41:01.578Z,8.60
2019-04-30T22:43:30.200Z,8.54
2019-04-30T22:46:03.364Z,8.52
2019-04-30T22:48:31.937Z,8.51
2019-04-30T22:51:00.557Z,8.51
2019-04-30T22:53:29.130Z,8.49
2019-04-30T22:55:57.735Z,8.47
2019-04-30T22:58:26.302Z,8.45
2019-04-30T23:00:56.477Z,8.42
2019-04-30T23:03:33.024Z,8.38
2019-04-30T23:06:01.715Z,8.34
2019-04-30T23:08:30.688Z,8.28
2019-04-30T23:10:59.255Z,8.22
2019-04-30T23:13:27.884Z,8.15
2019-04-30T23:15:56.462Z,8.13
2019-04-30T23:18:25.029Z,8.12
2019-04-30T23:20:53.599Z,8.12
2019-04-30T23:23:22.171Z,8.13
2019-04-30T23:25:50.676Z,8.13
2019-04-30T23:28:19.281Z,8.09
2019-04-30T23:30:47.908Z,8.04
2019-04-30T23:33:16.517Z,7.99
2019-04-30T23:35:45.081Z,7.91
2019-04-30T23:38:13.653Z,7.86
2019-04-30T23:40:47.572Z,7.79
2019-04-30T23:43:16.251Z,7.72
2019-04-30T23:45:45.558Z,7.68
2019-04-30T23:48:14.135Z,7.64
2019-04-30T23:50:42.861Z,7.62
2019-04-30T23:53:11.534Z,7.59
2019-04-30T23:55:40.099Z,7.59
2019-04-30T23:58:08.741Z,7.56
